ETD957 HKJK-EHAM
Flight info
| Callsign | ETD957 |
|---|---|
| Flight time | N/A |
| Altitude | 34000 |
| Route | ANTUK2D APKUB UQ293 IMPOG DCT SIPKI/N0488F350 UT325 BUN/N0487F340 UG862 UPAVO/N0485F360 UG862 DIR UB730 DJA/N0476F380 UB730 BOD UM508 TGU UJ36 BSA/N0469F370 UB726 CHLAL/N0472F390 UB726 ZEM/N0469F380 UB16 PECES N853 LUMAS DCT SOFFY DCT MRM DCT MTL DCT ETREK DCT MADOT DCT MOPEM DCT CACHI DCT AVLON DCT OKRIX DCT BRY DCT CLM DCT NURMO DCT SULEX DCT VEKIN DCT ADUTO N873 FERDI/N0402F240 Y18 DENUT |
| Aircraft | B77L/H-SDE1E2E3FGHIJ2J3J4J5M1RWXY/LB1D1 |
Departure
| Time | 2026-05-07 09:42 |
|---|---|
| Airport | Jomo Kenyatta International Airport (HKJK) |
Arrival
| Time | N/A |
|---|---|
| Airport | Amsterdam Airport Schiphol (EHAM) |
| Time | Latitude | Longitude | Altitude | Speed | Heading |
|---|---|---|---|---|---|
| 2026-05-07 09:39 | -1.32847 | 36.91715 | 5344 ft | 0 kts | 322° |
| 2026-05-07 09:40 | -1.32840 | 36.91709 | 5345 ft | 4 kts | 322° |
| 2026-05-07 09:41 | -1.32802 | 36.91681 | 5345 ft | 10 kts | 326° |
| 2026-05-07 09:41 | -1.32728 | 36.91686 | 5345 ft | 14 kts | 40° |
| 2026-05-07 09:41 | -1.32618 | 36.91829 | 5339 ft | 51 kts | 55° |
| 2026-05-07 09:41 | -1.32280 | 36.92293 | 5316 ft | 112 kts | 53° |
| 2026-05-07 09:42 | -1.31714 | 36.93070 | 5307 ft | 162 kts | 53° |
| 2026-05-07 09:42 | -1.30991 | 36.94076 | 5340 ft | 195 kts | 55° |
| 2026-05-07 09:42 | -1.30202 | 36.95183 | 5721 ft | 191 kts | 56° |
| 2026-05-07 09:42 | -1.29487 | 36.96312 | 6067 ft | 196 kts | 74° |
| 2026-05-07 09:43 | -1.29566 | 36.97657 | 6275 ft | 202 kts | 121° |
| 2026-05-07 09:43 | -1.30618 | 36.98530 | 6544 ft | 203 kts | 167° |
| 2026-05-07 09:43 | -1.32003 | 36.98419 | 6831 ft | 203 kts | 201° |
| 2026-05-07 09:43 | -1.33341 | 36.97906 | 7012 ft | 215 kts | 200° |
| 2026-05-07 09:44 | -1.34615 | 36.97048 | 7089 ft | 234 kts | 235° |
| 2026-05-07 09:44 | -1.35211 | 36.95492 | 7217 ft | 249 kts | 258° |
| 2026-05-07 09:44 | -1.35592 | 36.93720 | 7387 ft | 271 kts | 256° |
| 2026-05-07 09:44 | -1.36051 | 36.91837 | 7763 ft | 282 kts | 255° |
| 2026-05-07 09:45 | -1.36554 | 36.89920 | 8379 ft | 287 kts | 254° |
| 2026-05-07 09:45 | -1.37080 | 36.87983 | 8951 ft | 291 kts | 254° |
| 2026-05-07 09:45 | -1.37622 | 36.86016 | 9568 ft | 295 kts | 255° |
| 2026-05-07 09:45 | -1.37827 | 36.84006 | 10108 ft | 300 kts | 278° |
| 2026-05-07 09:46 | -1.37202 | 36.81993 | 10458 ft | 312 kts | 291° |
| 2026-05-07 09:46 | -1.36356 | 36.79912 | 10621 ft | 334 kts | 292° |
| 2026-05-07 09:46 | -1.35431 | 36.77694 | 10791 ft | 357 kts | 292° |
| 2026-05-07 09:46 | -1.34443 | 36.75330 | 11035 ft | 376 kts | 292° |
| 2026-05-07 09:47 | -1.33428 | 36.72890 | 11610 ft | 384 kts | 292° |
| 2026-05-07 09:47 | -1.32400 | 36.70403 | 12317 ft | 389 kts | 292° |
| 2026-05-07 09:47 | -1.31377 | 36.67910 | 12989 ft | 396 kts | 292° |
| 2026-05-07 09:47 | -1.30326 | 36.65339 | 13755 ft | 400 kts | 292° |
| 2026-05-07 09:48 | -1.29268 | 36.62751 | 14463 ft | 404 kts | 292° |
| 2026-05-07 09:48 | -1.28199 | 36.60132 | 15102 ft | 409 kts | 292° |
| 2026-05-07 09:48 | -1.27117 | 36.57482 | 15703 ft | 414 kts | 292° |
| 2026-05-07 09:48 | -1.26019 | 36.54787 | 16331 ft | 419 kts | 292° |
| 2026-05-07 09:49 | -1.24931 | 36.52112 | 16973 ft | 423 kts | 292° |
| 2026-05-07 09:49 | -1.23814 | 36.49369 | 17578 ft | 427 kts | 292° |
| 2026-05-07 09:49 | -1.22691 | 36.46608 | 18216 ft | 431 kts | 292° |
| 2026-05-07 09:49 | -1.21558 | 36.43826 | 18780 ft | 435 kts | 293° |
| 2026-05-07 09:50 | -1.20410 | 36.41011 | 19318 ft | 438 kts | 293° |
| 2026-05-07 09:50 | -1.19255 | 36.38181 | 19908 ft | 440 kts | 293° |
| 2026-05-07 09:50 | -1.18098 | 36.35340 | 20471 ft | 443 kts | 293° |
| 2026-05-07 09:50 | -1.16943 | 36.32508 | 20963 ft | 447 kts | 293° |
| 2026-05-07 09:51 | -1.15762 | 36.29615 | 21475 ft | 450 kts | 293° |
| 2026-05-07 09:51 | -1.14577 | 36.26708 | 22000 ft | 453 kts | 293° |
| 2026-05-07 09:51 | -1.13384 | 36.23783 | 22512 ft | 456 kts | 293° |
| 2026-05-07 09:51 | -1.12182 | 36.20836 | 23004 ft | 459 kts | 293° |
| 2026-05-07 09:52 | -1.10969 | 36.17862 | 23471 ft | 463 kts | 293° |
| 2026-05-07 09:52 | -1.09754 | 36.14874 | 23921 ft | 465 kts | 293° |
| 2026-05-07 09:52 | -1.08524 | 36.11908 | 24322 ft | 468 kts | 294° |
| 2026-05-07 09:52 | -1.07243 | 36.08909 | 24722 ft | 469 kts | 294° |
| 2026-05-07 09:53 | -1.05943 | 36.05902 | 25121 ft | 471 kts | 294° |
| 2026-05-07 09:53 | -1.04638 | 36.02894 | 25524 ft | 474 kts | 294° |
| 2026-05-07 09:53 | -1.03326 | 35.99860 | 25904 ft | 476 kts | 294° |
| 2026-05-07 09:53 | -1.02012 | 35.96804 | 26266 ft | 479 kts | 294° |
| 2026-05-07 09:54 | -1.00694 | 35.93730 | 26627 ft | 482 kts | 294° |
| 2026-05-07 09:54 | -0.99365 | 35.90637 | 26982 ft | 484 kts | 294° |
| 2026-05-07 09:54 | -0.98034 | 35.87543 | 27390 ft | 485 kts | 294° |
| 2026-05-07 09:54 | -0.96700 | 35.84441 | 27765 ft | 487 kts | 294° |
| 2026-05-07 09:55 | -0.95358 | 35.81318 | 28091 ft | 490 kts | 294° |
| 2026-05-07 09:55 | -0.94008 | 35.78172 | 28408 ft | 493 kts | 294° |
| 2026-05-07 09:55 | -0.92671 | 35.75058 | 28748 ft | 495 kts | 294° |
| 2026-05-07 09:55 | -0.91310 | 35.71886 | 29087 ft | 497 kts | 294° |
| 2026-05-07 09:56 | -0.89944 | 35.68702 | 29435 ft | 499 kts | 294° |
| 2026-05-07 09:56 | -0.88571 | 35.65504 | 29760 ft | 501 kts | 294° |
| 2026-05-07 09:56 | -0.87192 | 35.62290 | 30079 ft | 503 kts | 294° |